Terminal Aerodrome Forecast
Issued by NWS

Home | Current Version | Previous Version | Text Only | Print | Product List | Glossary On
Versions: 1 2 3 4 5 6 7 8 9 10 11 12 13 14 15
000
FTUS45 KABQ 282300
TAFLVS
TAF
KLVS 282340Z 2900/2924 18011G19KT P6SM VCSH SCT050 SCT090
     FM290200 17010KT P6SM VCSH SCT050 BKN080
     FM290900 16008KT P6SM VCSH BKN020
     FM291600 19011KT P6SM SCT035 BKN090
     FM291900 20013KT P6SM VCTS SCT050CB BKN090=

USA.gov is the U.S. government's official web portal to all federal, state and local government web resources and services.